createdAt,value
2023-02-17T00:01:50.565Z,0.00
2023-02-17T00:11:50.627Z,0.00
2023-02-17T00:21:50.731Z,0.00
2023-02-17T00:31:50.956Z,0.00
2023-02-17T00:41:51.111Z,0.00
2023-02-17T00:51:51.162Z,0.00
2023-02-17T01:01:51.533Z,0.00
2023-02-17T01:11:51.596Z,0.00
2023-02-17T01:21:51.864Z,0.00
2023-02-17T01:31:51.940Z,0.00
2023-02-17T01:41:52.250Z,0.00
2023-02-17T01:51:52.095Z,0.00
2023-02-17T02:01:52.465Z,0.00
2023-02-17T02:11:52.528Z,0.00
2023-02-17T02:21:52.854Z,0.00
2023-02-17T02:31:52.950Z,0.00
2023-02-17T02:41:53.026Z,0.00
2023-02-17T02:51:53.263Z,0.00
2023-02-17T03:01:53.601Z,0.00
2023-02-17T03:11:53.636Z,0.00
2023-02-17T03:21:53.985Z,0.00
2023-02-17T03:31:54.118Z,0.00
2023-02-17T03:41:54.232Z,0.00
2023-02-17T03:51:54.300Z,0.00
2023-02-17T04:01:55.544Z,0.00
2023-02-17T04:11:54.583Z,0.00
2023-02-17T04:21:54.861Z,0.00
2023-02-17T04:31:55.219Z,0.00
2023-02-17T04:41:55.452Z,0.00
2023-02-17T04:51:55.529Z,0.00
2023-02-17T05:01:55.617Z,0.00
2023-02-17T05:11:55.635Z,0.00
2023-02-17T05:21:55.982Z,0.00
2023-02-17T05:31:56.014Z,0.00
2023-02-17T05:41:56.801Z,0.00
2023-02-17T05:51:56.434Z,0.00
2023-02-17T06:01:56.727Z,0.00
2023-02-17T06:11:56.794Z,0.00
2023-02-17T06:21:57.109Z,8.00
2023-02-17T06:31:57.247Z,16.00
2023-02-17T06:41:57.359Z,40.00
2023-02-17T06:51:57.393Z,60.00
2023-02-17T07:01:57.963Z,64.00
2023-02-17T07:11:57.816Z,68.00
2023-02-17T07:21:58.100Z,96.00
2023-02-17T07:31:58.185Z,172.00
2023-02-17T07:41:58.265Z,256.00
2023-02-17T07:51:58.489Z,196.00
2023-02-17T08:01:58.759Z,160.00
2023-02-17T08:11:58.805Z,192.00
2023-02-17T08:21:59.104Z,256.00
2023-02-17T08:31:59.220Z,292.00
2023-02-17T08:41:59.391Z,296.00
2023-02-17T08:51:59.456Z,312.00
2023-02-17T09:02:12.251Z,300.00
2023-02-17T09:11:59.956Z,212.00
2023-02-17T09:22:00.017Z,372.00
2023-02-17T09:32:00.488Z,504.00
2023-02-17T09:42:00.518Z,448.00
2023-02-17T09:52:00.620Z,612.00
2023-02-17T10:02:03.926Z,828.00
2023-02-17T10:12:00.753Z,668.00
2023-02-17T10:22:01.158Z,468.00
2023-02-17T10:32:01.337Z,352.00
2023-02-17T10:42:01.377Z,348.00
2023-02-17T10:52:01.416Z,344.00
2023-02-17T11:02:01.755Z,348.00
2023-02-17T11:12:01.791Z,344.00
2023-02-17T11:22:02.032Z,344.00
2023-02-17T11:32:02.424Z,464.00
2023-02-17T11:42:03.767Z,648.00
2023-02-17T11:52:02.604Z,412.00
2023-02-17T12:02:03.792Z,400.00
2023-02-17T12:12:02.833Z,328.00
2023-02-17T12:22:03.135Z,292.00
2023-02-17T12:32:03.217Z,272.00
2023-02-17T12:42:03.416Z,236.00
2023-02-17T12:52:03.491Z,240.00
2023-02-17T13:02:03.739Z,268.00
2023-02-17T13:12:03.768Z,220.00
2023-02-17T13:22:05.127Z,236.00
2023-02-17T13:32:04.271Z,348.00
2023-02-17T13:42:04.512Z,460.00
2023-02-17T13:52:04.565Z,356.00
2023-02-17T14:02:06.829Z,296.00
2023-02-17T14:12:04.864Z,284.00
2023-02-17T14:22:05.238Z,228.00
2023-02-17T14:32:05.466Z,180.00
2023-02-17T14:42:05.442Z,160.00
2023-02-17T14:52:05.467Z,156.00
2023-02-17T15:02:06.009Z,152.00
2023-02-17T15:12:05.911Z,140.00
2023-02-17T15:22:06.172Z,176.00
2023-02-17T15:32:06.264Z,192.00
2023-02-17T15:42:06.444Z,164.00
2023-02-17T15:52:06.710Z,152.00
2023-02-17T16:02:09.883Z,136.00
2023-02-17T16:12:06.864Z,68.00
2023-02-17T16:22:07.409Z,48.00
2023-02-17T16:32:07.403Z,32.00
2023-02-17T16:42:07.695Z,12.00
2023-02-17T16:52:07.645Z,4.00
2023-02-17T17:02:08.848Z,0.00
2023-02-17T17:12:07.976Z,0.00
2023-02-17T17:22:08.189Z,0.00
2023-02-17T17:32:08.414Z,0.00
2023-02-17T17:42:10.628Z,0.00
2023-02-17T17:52:08.849Z,0.00
2023-02-17T18:02:09.865Z,0.00
2023-02-17T18:12:09.191Z,0.00
2023-02-17T18:22:11.355Z,0.00
2023-02-17T18:32:09.586Z,0.00
2023-02-17T18:42:15.627Z,0.00
2023-02-17T18:52:09.788Z,0.00
2023-02-17T19:02:10.098Z,0.00
2023-02-17T19:12:10.832Z,0.00
2023-02-17T19:22:10.091Z,0.00
2023-02-17T19:32:10.605Z,0.00
2023-02-17T19:42:10.571Z,0.00
2023-02-17T19:52:10.940Z,0.00
2023-02-17T20:02:10.946Z,0.00
2023-02-17T20:12:11.274Z,0.00
2023-02-17T20:22:11.594Z,0.00
2023-02-17T20:32:11.662Z,0.00
2023-02-17T20:42:11.685Z,0.00
2023-02-17T20:52:11.866Z,0.00
2023-02-17T21:02:12.120Z,0.00
2023-02-17T21:12:12.080Z,0.00
2023-02-17T21:22:12.158Z,0.00
2023-02-17T21:32:12.549Z,0.00
2023-02-17T21:42:12.571Z,0.00
2023-02-17T21:52:12.481Z,0.00
2023-02-17T22:02:13.989Z,0.00
2023-02-17T22:12:12.920Z,0.00
2023-02-17T22:22:13.227Z,0.00
2023-02-17T22:32:13.339Z,0.00
2023-02-17T22:42:13.510Z,0.00
2023-02-17T22:52:13.547Z,0.00
2023-02-17T23:02:15.827Z,0.00
2023-02-17T23:12:13.854Z,0.00
2023-02-17T23:22:14.153Z,0.00
2023-02-17T23:32:14.181Z,0.00
2023-02-17T23:42:14.526Z,0.00
2023-02-17T23:52:14.546Z,0.00
